sensor_id;sensor_type;location;lat;lon;timestamp;pressure;altitude;pressure_sealevel;temperature;humidity
68145;BME280;55400;51.824;-0.196;2024-03-02T00:07:39;98136.23999999999;;;3.63;80.71
68145;BME280;55400;51.824;-0.196;2024-03-02T00:11:39;98137.29;;;3.57;80.43
68145;BME280;55400;51.824;-0.196;2024-03-02T00:15:40;98140.73;;;3.55;80.86
68145;BME280;55400;51.824;-0.196;2024-03-02T00:19:39;98143.93;;;3.56;80.94
68145;BME280;55400;51.824;-0.196;2024-03-02T00:23:39;98143.93;;;3.58;81.04
68145;BME280;55400;51.824;-0.196;2024-03-02T00:27:39;98139.14;;;3.64;81.28
68145;BME280;55400;51.824;-0.196;2024-03-02T00:31:39;98132.33;;;3.65;81.08
68145;BME280;55400;51.824;-0.196;2024-03-02T00:39:39;98136.3;;;3.60;80.84
68145;BME280;55400;51.824;-0.196;2024-03-02T00:43:42;98149.05;;;3.56;81.39
68145;BME280;55400;51.824;-0.196;2024-03-02T00:47:39;98149.05;;;3.53;82.00
68145;BME280;55400;51.824;-0.196;2024-03-02T00:51:39;98147.29;;;3.56;82.10
68145;BME280;55400;51.824;-0.196;2024-03-02T00:55:39;98148.56;;;3.58;82.52
68145;BME280;55400;51.824;-0.196;2024-03-02T00:59:39;98146.61;;;3.60;82.67
68145;BME280;55400;51.824;-0.196;2024-03-02T01:03:39;98148.61;;;3.62;83.34
68145;BME280;55400;51.824;-0.196;2024-03-02T01:07:39;98139.5;;;3.64;83.25
68145;BME280;55400;51.824;-0.196;2024-03-02T01:11:39;98139.5;;;3.73;83.25
68145;BME280;55400;51.824;-0.196;2024-03-02T01:15:39;98140.28;;;3.77;82.78
68145;BME280;55400;51.824;-0.196;2024-03-02T01:19:39;98140.12;;;3.84;83.48
68145;BME280;55400;51.824;-0.196;2024-03-02T01:27:39;98146.92;;;3.91;83.63
68145;BME280;55400;51.824;-0.196;2024-03-02T01:31:39;98143.20999999999;;;3.94;83.83
68145;BME280;55400;51.824;-0.196;2024-03-02T01:40:36;98133.34999999999;;;4.02;unavailable
68145;BME280;55400;51.824;-0.196;2024-03-02T01:43:39;98133.34999999999;;;4.06;84.08
68145;BME280;55400;51.824;-0.196;2024-03-02T01:47:39;98135.96;;;4.08;84.23
68145;BME280;55400;51.824;-0.196;2024-03-02T01:51:39;98138.31999999999;;;4.12;83.86
68145;BME280;55400;51.824;-0.196;2024-03-02T01:55:39;98138.84000000001;;;4.13;84.10
68145;BME280;55400;51.824;-0.196;2024-03-02T01:59:39;98141.07;;;4.15;84.07
68145;BME280;55400;51.824;-0.196;2024-03-02T02:03:39;98132.15;;;4.19;84.13
68145;BME280;55400;51.824;-0.196;2024-03-02T02:15:39;98120.9;;;4.13;83.79
68145;BME280;55400;51.824;-0.196;2024-03-02T02:19:40;98110.27;;;4.07;83.88
68145;BME280;55400;51.824;-0.196;2024-03-02T02:23:39;98112.01999999999;;;4.05;83.96
68145;BME280;55400;51.824;-0.196;2024-03-02T02:27:39;98112.01999999999;;;4.12;83.82
68145;BME280;55400;51.824;-0.196;2024-03-02T02:31:40;98119.28;;;4.15;84.30
68145;BME280;55400;51.824;-0.196;2024-03-02T02:35:39;98112.76000000001;;;4.21;84.21
68145;BME280;55400;51.824;-0.196;2024-03-02T02:39:39;98103.9;;;4.24;84.14
68145;BME280;55400;51.824;-0.196;2024-03-02T02:43:39;98091.4;;;4.28;84.50
68145;BME280;55400;51.824;-0.196;2024-03-02T02:47:40;98081.93;;;4.31;84.13
68145;BME280;55400;51.824;-0.196;2024-03-02T02:51:39;98082.76;;;4.35;84.32
68145;BME280;55400;51.824;-0.196;2024-03-02T02:55:39;98082.76;;;4.39;84.36
68145;BME280;55400;51.824;-0.196;2024-03-02T02:59:39;98079.98999999999;;;4.41;84.18
68145;BME280;55400;51.824;-0.196;2024-03-02T03:03:39;98081.11;;;4.42;84.13
68145;BME280;55400;51.824;-0.196;2024-03-02T03:11:39;98067.47;;;4.44;84.49
68145;BME280;55400;51.824;-0.196;2024-03-02T03:15:39;98064.83;;;4.46;84.61
68145;BME280;55400;51.824;-0.196;2024-03-02T03:19:39;98055.59;;;4.49;84.44
68145;BME280;55400;51.824;-0.196;2024-03-02T03:23:39;98058.87;;;4.48;84.36
68145;BME280;55400;51.824;-0.196;2024-03-02T03:27:39;98058.52;;;4.47;84.34
68145;BME280;55400;51.824;-0.196;2024-03-02T03:31:39;98056.92;;;4.52;84.35
68145;BME280;55400;51.824;-0.196;2024-03-02T03:35:39;98047.75;;;4.56;84.47
68145;BME280;55400;51.824;-0.196;2024-03-02T03:39:39;98044.84;;;4.59;84.57
68145;BME280;55400;51.824;-0.196;2024-03-02T03:43:39;98038.59;;;4.60;84.65
68145;BME280;55400;51.824;-0.196;2024-03-02T03:47:39;98038.59;;;4.62;84.65
68145;BME280;55400;51.824;-0.196;2024-03-02T03:51:40;98032.79;;;4.64;84.66
68145;BME280;55400;51.824;-0.196;2024-03-02T03:55:40;98026.51;;;4.63;84.28
68145;BME280;55400;51.824;-0.196;2024-03-02T03:59:39;98017.22;;;4.64;84.82
68145;BME280;55400;51.824;-0.196;2024-03-02T04:07:39;98008.39;;;4.66;85.07
68145;BME280;55400;51.824;-0.196;2024-03-02T04:15:40;98005.58;;;4.64;85.29
68145;BME280;55400;51.824;-0.196;2024-03-02T04:19:39;98005.62999999999;;;4.65;85.16
68145;BME280;55400;51.824;-0.196;2024-03-02T04:23:40;98007.22;;;4.67;85.35
68145;BME280;55400;51.824;-0.196;2024-03-02T04:27:39;98002.33;;;4.65;84.68
68145;BME280;55400;51.824;-0.196;2024-03-02T04:31:40;97999.97;;;4.62;85.21
68145;BME280;55400;51.824;-0.196;2024-03-02T04:35:40;97995.51;;;4.58;85.04
68145;BME280;55400;51.824;-0.196;2024-03-02T04:39:40;97995.9;;;4.56;85.16
68145;BME280;55400;51.824;-0.196;2024-03-02T04:43:40;97992.40999999999;;;4.60;85.48
68145;BME280;55400;51.824;-0.196;2024-03-02T04:47:40;97992.38;;;4.58;84.79
68145;BME280;55400;51.824;-0.196;2024-03-02T04:51:40;97992.81;;;4.49;84.86
68145;BME280;55400;51.824;-0.196;2024-03-02T04:55:40;97991.58;;;4.46;85.00
68145;BME280;55400;51.824;-0.196;2024-03-02T04:59:40;97991.58;;;4.50;85.00
68145;BME280;55400;51.824;-0.196;2024-03-02T05:03:40;97999.23999999999;;;4.53;84.79
68145;BME280;55400;51.824;-0.196;2024-03-02T05:07:40;97992.62999999999;;;4.52;85.15
68145;BME280;55400;51.824;-0.196;2024-03-02T05:11:40;97992.62999999999;;;4.50;85.15
68145;BME280;55400;51.824;-0.196;2024-03-02T05:15:40;97994.67;;;4.49;84.85
68145;BME280;55400;51.824;-0.196;2024-03-02T05:19:40;97999.17;;;4.50;85.99
68145;BME280;55400;51.824;-0.196;2024-03-02T05:23:40;97994.16;;;4.51;85.57
68145;BME280;55400;51.824;-0.196;2024-03-02T05:27:40;97994.16;;;4.57;86.22
68145;BME280;55400;51.824;-0.196;2024-03-02T05:31:40;97992.69;;;4.61;85.33
68145;BME280;55400;51.824;-0.196;2024-03-02T05:35:40;97988.7;;;4.60;85.26
68145;BME280;55400;51.824;-0.196;2024-03-02T05:39:40;97974.72;;;4.62;86.20
68145;BME280;55400;51.824;-0.196;2024-03-02T05:43:40;97974.72;;;4.59;85.96
68145;BME280;55400;51.824;-0.196;2024-03-02T05:47:40;97981.61;;;4.65;86.09
68145;BME280;55400;51.824;-0.196;2024-03-02T05:51:40;97975.83;;;4.64;85.32
68145;BME280;55400;51.824;-0.196;2024-03-02T05:55:40;97974.37999999999;;;4.62;86.10
68145;BME280;55400;51.824;-0.196;2024-03-02T05:59:40;97968.59;;;4.64;86.80
68145;BME280;55400;51.824;-0.196;2024-03-02T06:03:40;97968.67;;;4.65;86.65
68145;BME280;55400;51.824;-0.196;2024-03-02T06:11:40;97950.05;;;4.69;87.08
68145;BME280;55400;51.824;-0.196;2024-03-02T06:15:40;97947.09;;;4.70;87.01
68145;BME280;55400;51.824;-0.196;2024-03-02T06:19:40;97944.78;;;4.68;86.83
68145;BME280;55400;51.824;-0.196;2024-03-02T06:23:40;97939.0;;;4.65;86.68
68145;BME280;55400;51.824;-0.196;2024-03-02T06:27:40;97933.09000000001;;;4.63;87.39
68145;BME280;55400;51.824;-0.196;2024-03-02T06:31:40;97933.83;;;4.60;86.44
68145;BME280;55400;51.824;-0.196;2024-03-02T06:35:40;97931.33;;;4.57;86.58
68145;BME280;55400;51.824;-0.196;2024-03-02T06:39:40;97931.76999999999;;;4.56;86.48
68145;BME280;55400;51.824;-0.196;2024-03-02T06:43:40;97934.70999999999;;;4.59;86.39
68145;BME280;55400;51.824;-0.196;2024-03-02T06:47:40;97934.70999999999;;;4.58;86.39
68145;BME280;55400;51.824;-0.196;2024-03-02T06:51:40;97935.88;;;4.60;87.04
68145;BME280;55400;51.824;-0.196;2024-03-02T06:55:40;97932.9;;;4.61;87.25
68145;BME280;55400;51.824;-0.196;2024-03-02T06:59:40;97932.9;;;4.60;86.79
68145;BME280;55400;51.824;-0.196;2024-03-02T07:03:40;97940.88;;;4.64;87.90
68145;BME280;55400;51.824;-0.196;2024-03-02T07:07:40;97938.81999999999;;;4.70;87.64
68145;BME280;55400;51.824;-0.196;2024-03-02T07:11:40;97942.08;;;4.76;86.97
68145;BME280;55400;51.824;-0.196;2024-03-02T07:15:40;97939.73;;;4.84;87.46
68145;BME280;55400;51.824;-0.196;2024-03-02T07:19:40;97947.88;;;4.87;85.87
68145;BME280;55400;51.824;-0.196;2024-03-02T07:27:40;97954.28;;;4.92;86.97
68145;BME280;55400;51.824;-0.196;2024-03-02T07:31:40;97944.69;;;4.94;86.48
68145;BME280;55400;51.824;-0.196;2024-03-02T07:35:40;97934.69;;;4.96;86.13
68145;BME280;55400;51.824;-0.196;2024-03-02T07:39:40;97935.08;;;5.01;86.87
68145;BME280;55400;51.824;-0.196;2024-03-02T07:43:40;97939.9;;;5.00;85.83
68145;BME280;55400;51.824;-0.196;2024-03-02T07:51:40;97955.36;;;4.98;85.94
68145;BME280;55400;51.824;-0.196;2024-03-02T07:55:40;97962.56;;;5.00;87.50
68145;BME280;55400;51.824;-0.196;2024-03-02T07:59:40;97955.94;;;5.02;86.67
68145;BME280;55400;51.824;-0.196;2024-03-02T08:03:40;97947.85;;;5.04;86.44
68145;BME280;55400;51.824;-0.196;2024-03-02T08:07:40;97967.33;;;5.11;87.54
68145;BME280;55400;51.824;-0.196;2024-03-02T08:11:40;97967.33;;;5.12;86.65
68145;BME280;55400;51.824;-0.196;2024-03-02T08:15:40;97964.11;;;5.16;88.55
68145;BME280;55400;51.824;-0.196;2024-03-02T08:19:40;97962.85;;;5.23;89.34
68145;BME280;55400;51.824;-0.196;2024-03-02T08:23:40;97963.14;;;5.24;88.82
68145;BME280;55400;51.824;-0.196;2024-03-02T08:27:40;97963.69;;;5.23;88.51
68145;BME280;55400;51.824;-0.196;2024-03-02T08:31:40;97977.76;;;5.18;87.99
68145;BME280;55400;51.824;-0.196;2024-03-02T08:35:40;97980.8;;;5.24;90.37
68145;BME280;55400;51.824;-0.196;2024-03-02T08:39:40;97974.51999999999;;;5.21;88.79
68145;BME280;55400;51.824;-0.196;2024-03-02T08:43:40;97978.64;;;5.26;89.70
68145;BME280;55400;51.824;-0.196;2024-03-02T08:47:40;97972.25;;;5.31;88.58
68145;BME280;55400;51.824;-0.196;2024-03-02T08:51:40;97975.8;;;5.43;88.56
68145;BME280;55400;51.824;-0.196;2024-03-02T08:55:40;97981.81;;;5.47;88.02
68145;BME280;55400;51.824;-0.196;2024-03-02T08:59:40;98007.61;;;5.48;88.29
68145;BME280;55400;51.824;-0.196;2024-03-02T09:07:40;98034.2;;;5.22;86.42
68145;BME280;55400;51.824;-0.196;2024-03-02T09:11:40;98036.18000000001;;;5.12;87.24
68145;BME280;55400;51.824;-0.196;2024-03-02T09:15:41;98036.18000000001;;;5.09;87.24
68145;BME280;55400;51.824;-0.196;2024-03-02T09:19:40;98043.62999999999;;;5.05;87.98
68145;BME280;55400;51.824;-0.196;2024-03-02T09:23:40;98043.62999999999;;;5.09;87.98
68145;BME280;55400;51.824;-0.196;2024-03-02T09:27:40;98051.33;;;5.01;86.66
68145;BME280;55400;51.824;-0.196;2024-03-02T09:31:40;98051.86;;;5.04;87.45
68145;BME280;55400;51.824;-0.196;2024-03-02T09:35:40;98051.86;;;5.11;88.56
68145;BME280;55400;51.824;-0.196;2024-03-02T09:39:43;98051.57;;;5.12;87.97
68145;BME280;55400;51.824;-0.196;2024-03-02T09:43:40;98043.86;;;5.08;87.80
68145;BME280;55400;51.824;-0.196;2024-03-02T09:47:41;98036.42;;;5.07;87.51
68145;BME280;55400;51.824;-0.196;2024-03-02T09:51:40;98042.11;;;5.09;87.16
68145;BME280;55400;51.824;-0.196;2024-03-02T09:55:40;98051.08;;;5.11;88.03
68145;BME280;55400;51.824;-0.196;2024-03-02T09:59:40;98063.25;;;5.09;88.59
68145;BME280;55400;51.824;-0.196;2024-03-02T10:03:41;98063.25;;;5.12;87.82
68145;BME280;55400;51.824;-0.196;2024-03-02T10:07:41;98063.72;;;5.11;87.09
68145;BME280;55400;51.824;-0.196;2024-03-02T10:11:41;98064.17;;;5.08;88.34
68145;BME280;55400;51.824;-0.196;2024-03-02T10:15:41;98064.17;;;5.07;88.34
68145;BME280;55400;51.824;-0.196;2024-03-02T10:19:41;98068.28;;;5.10;87.74
68145;BME280;55400;51.824;-0.196;2024-03-02T10:23:41;98065.52;;;5.13;87.61
68145;BME280;55400;51.824;-0.196;2024-03-02T10:27:41;98065.52;;;5.12;87.46
68145;BME280;55400;51.824;-0.196;2024-03-02T10:31:41;98061.83;;;5.14;87.61
68145;BME280;55400;51.824;-0.196;2024-03-02T10:35:41;98057.73000000001;;;5.20;87.35
68145;BME280;55400;51.824;-0.196;2024-03-02T10:39:41;98065.58;;;5.29;87.77
68145;BME280;55400;51.824;-0.196;2024-03-02T10:43:41;98070.45000000001;;;5.38;87.23
68145;BME280;55400;51.824;-0.196;2024-03-02T10:47:42;98071.63;;;5.47;87.52
68145;BME280;55400;51.824;-0.196;2024-03-02T10:51:41;98066.83;;;5.50;88.10
68145;BME280;55400;51.824;-0.196;2024-03-02T10:55:41;98067.75;;;5.56;88.15
68145;BME280;55400;51.824;-0.196;2024-03-02T10:59:43;98067.75;;;5.68;88.15
68145;BME280;55400;51.824;-0.196;2024-03-02T11:03:41;98067.6;;;5.77;87.14
68145;BME280;55400;51.824;-0.196;2024-03-02T11:07:41;98075.23;;;5.86;87.01
68145;BME280;55400;51.824;-0.196;2024-03-02T11:11:42;98082.89;;;5.87;87.51
68145;BME280;55400;51.824;-0.196;2024-03-02T11:15:41;98089.83;;;5.91;88.83
68145;BME280;55400;51.824;-0.196;2024-03-02T11:19:41;98092.0;;;5.89;89.03
68145;BME280;55400;51.824;-0.196;2024-03-02T11:23:41;98094.53;;;5.90;88.13
68145;BME280;55400;51.824;-0.196;2024-03-02T11:35:42;98105.55;;;6.11;87.26
68145;BME280;55400;51.824;-0.196;2024-03-02T11:43:41;98106.68;;;6.06;86.17
68145;BME280;55400;51.824;-0.196;2024-03-02T11:47:41;98106.68;;;6.02;86.52
68145;BME280;55400;51.824;-0.196;2024-03-02T11:55:41;98103.77;;;6.01;87.11
68145;BME280;55400;51.824;-0.196;2024-03-02T11:59:41;98117.85;;;5.85;86.47
68145;BME280;55400;51.824;-0.196;2024-03-02T12:03:41;98113.7;;;5.91;86.50
68145;BME280;55400;51.824;-0.196;2024-03-02T12:07:41;98096.88;;;5.92;87.32
68145;BME280;55400;51.824;-0.196;2024-03-02T12:11:41;98096.88;;;6.04;87.32
68145;BME280;55400;51.824;-0.196;2024-03-02T12:15:41;98108.25;;;6.12;86.62
68145;BME280;55400;51.824;-0.196;2024-03-02T12:19:41;98111.68000000001;;;6.21;86.08
68145;BME280;55400;51.824;-0.196;2024-03-02T12:27:41;98112.23;;;6.19;85.96
68145;BME280;55400;51.824;-0.196;2024-03-02T12:31:41;98111.33;;;6.25;85.96
68145;BME280;55400;51.824;-0.196;2024-03-02T12:35:41;98111.33;;;6.36;85.74
68145;BME280;55400;51.824;-0.196;2024-03-02T12:39:44;98108.87;;;6.45;85.88
68145;BME280;55400;51.824;-0.196;2024-03-02T12:43:41;98114.20000000001;;;6.53;86.23
68145;BME280;55400;51.824;-0.196;2024-03-02T12:47:41;98120.95000000001;;;6.58;86.05
68145;BME280;55400;51.824;-0.196;2024-03-02T12:51:42;98113.36;;;6.70;85.37
68145;BME280;55400;51.824;-0.196;2024-03-02T12:55:41;98122.23;;;6.78;84.97
68145;BME280;55400;51.824;-0.196;2024-03-02T12:59:41;98129.72;;;6.74;84.69
68145;BME280;55400;51.824;-0.196;2024-03-02T13:07:41;98131.03;;;6.80;84.12
68145;BME280;55400;51.824;-0.196;2024-03-02T13:11:41;98137.89;;;6.85;84.10
68145;BME280;55400;51.824;-0.196;2024-03-02T13:15:41;98137.01999999999;;;6.99;84.20
68145;BME280;55400;51.824;-0.196;2024-03-02T13:19:43;98143.3;;;7.10;83.61
68145;BME280;55400;51.824;-0.196;2024-03-02T13:23:41;98139.09;;;7.19;82.71
68145;BME280;55400;51.824;-0.196;2024-03-02T13:27:41;98139.09;;;7.33;81.78
68145;BME280;55400;51.824;-0.196;2024-03-02T13:31:41;98137.2;;;7.41;81.99
68145;BME280;55400;51.824;-0.196;2024-03-02T13:39:41;98137.09;;;7.37;80.94
68145;BME280;55400;51.824;-0.196;2024-03-02T13:43:41;98131.95;;;7.47;81.20
68145;BME280;55400;51.824;-0.196;2024-03-02T13:47:41;98132.43;;;7.56;80.98
68145;BME280;55400;51.824;-0.196;2024-03-02T13:51:41;98135.85;;;7.53;80.78
68145;BME280;55400;51.824;-0.196;2024-03-02T13:55:41;98133.48;;;7.46;79.28
68145;BME280;55400;51.824;-0.196;2024-03-02T13:59:41;98133.48;;;7.40;79.33
68145;BME280;55400;51.824;-0.196;2024-03-02T14:03:41;98140.65000000001;;;7.44;80.07
68145;BME280;55400;51.824;-0.196;2024-03-02T14:07:41;98153.63;;;7.31;80.07
68145;BME280;55400;51.824;-0.196;2024-03-02T14:11:41;98139.69;;;7.43;81.90
68145;BME280;55400;51.824;-0.196;2024-03-02T14:15:41;98143.58;;;7.52;82.20
68145;BME280;55400;51.824;-0.196;2024-03-02T14:19:41;98147.01;;;7.61;82.69
68145;BME280;55400;51.824;-0.196;2024-03-02T14:23:41;98148.05;;;7.60;80.80
68145;BME280;55400;51.824;-0.196;2024-03-02T14:27:41;98152.06;;;7.65;80.55
68145;BME280;55400;51.824;-0.196;2024-03-02T14:31:41;98152.08;;;7.69;80.24
68145;BME280;55400;51.824;-0.196;2024-03-02T14:35:41;98152.08;;;7.72;79.91
68145;BME280;55400;51.824;-0.196;2024-03-02T14:39:41;98154.22;;;7.69;79.14
68145;BME280;55400;51.824;-0.196;2024-03-02T14:43:41;98154.22;;;7.65;77.48
68145;BME280;55400;51.824;-0.196;2024-03-02T14:47:41;98157.79;;;7.71;76.38
68145;BME280;55400;51.824;-0.196;2024-03-02T14:51:41;98162.42;;;7.84;76.64
68145;BME280;55400;51.824;-0.196;2024-03-02T14:55:41;98162.42;;;7.76;76.89
68145;BME280;55400;51.824;-0.196;2024-03-02T14:59:41;98165.36;;;7.61;75.15
68145;BME280;55400;51.824;-0.196;2024-03-02T15:03:41;98166.0;;;7.59;73.10
68145;BME280;55400;51.824;-0.196;2024-03-02T15:07:41;98174.05;;;7.58;73.93
68145;BME280;55400;51.824;-0.196;2024-03-02T15:11:41;98176.31;;;7.67;73.98
68145;BME280;55400;51.824;-0.196;2024-03-02T15:15:41;98170.09000000001;;;7.86;74.12
68145;BME280;55400;51.824;-0.196;2024-03-02T15:19:41;98170.09000000001;;;7.92;74.12
68145;BME280;55400;51.824;-0.196;2024-03-02T15:23:41;98167.35;;;8.02;72.09
68145;BME280;55400;51.824;-0.196;2024-03-02T15:27:41;98168.84;;;8.06;72.45
68145;BME280;55400;51.824;-0.196;2024-03-02T15:31:41;98182.28;;;7.99;71.75
68145;BME280;55400;51.824;-0.196;2024-03-02T15:35:41;98184.53;;;7.86;71.75
68145;BME280;55400;51.824;-0.196;2024-03-02T15:39:41;98184.53;;;7.77;69.68
68145;BME280;55400;51.824;-0.196;2024-03-02T15:43:41;98187.75;;;7.74;71.11
68145;BME280;55400;51.824;-0.196;2024-03-02T15:47:41;98180.89;;;7.77;70.34
68145;BME280;55400;51.824;-0.196;2024-03-02T15:51:41;98184.01;;;7.67;72.26
68145;BME280;55400;51.824;-0.196;2024-03-02T15:55:41;98190.8;;;7.62;70.22
68145;BME280;55400;51.824;-0.196;2024-03-02T15:59:41;98226.09;;;7.59;71.16
68145;BME280;55400;51.824;-0.196;2024-03-02T16:03:42;98226.09;;;7.57;71.86
68145;BME280;55400;51.824;-0.196;2024-03-02T16:07:41;98228.83;;;7.69;71.78
68145;BME280;55400;51.824;-0.196;2024-03-02T16:11:41;98232.9;;;7.61;73.54
68145;BME280;55400;51.824;-0.196;2024-03-02T16:15:41;98229.94;;;7.55;73.65
68145;BME280;55400;51.824;-0.196;2024-03-02T16:19:42;98238.65;;;7.43;73.01
68145;BME280;55400;51.824;-0.196;2024-03-02T16:23:41;98239.4;;;7.39;73.20
68145;BME280;55400;51.824;-0.196;2024-03-02T16:31:42;98250.31;;;7.43;73.61
68145;BME280;55400;51.824;-0.196;2024-03-02T16:35:41;98268.45;;;7.62;74.27
68145;BME280;55400;51.824;-0.196;2024-03-02T16:39:42;98271.12;;;7.87;74.81
68145;BME280;55400;51.824;-0.196;2024-03-02T16:43:42;98255.66;;;8.05;74.52
68145;BME280;55400;51.824;-0.196;2024-03-02T16:47:42;98258.54000000001;;;8.28;73.22
68145;BME280;55400;51.824;-0.196;2024-03-02T16:51:42;98265.32999999999;;;8.51;72.54
68145;BME280;55400;51.824;-0.196;2024-03-02T16:55:42;98265.32999999999;;;8.69;71.29
68145;BME280;55400;51.824;-0.196;2024-03-02T16:59:42;98271.48;;;8.58;69.04
68145;BME280;55400;51.824;-0.196;2024-03-02T17:03:42;98279.81;;;8.39;70.49
68145;BME280;55400;51.824;-0.196;2024-03-02T17:07:42;98297.31;;;8.18;70.76
68145;BME280;55400;51.824;-0.196;2024-03-02T17:11:42;98296.93;;;8.05;72.46
68145;BME280;55400;51.824;-0.196;2024-03-02T17:15:42;98296.93;;;7.67;72.46
68145;BME280;55400;51.824;-0.196;2024-03-02T17:19:42;98302.59999999999;;;7.46;70.94
68145;BME280;55400;51.824;-0.196;2024-03-02T17:23:42;98309.87;;;7.29;71.67
68145;BME280;55400;51.824;-0.196;2024-03-02T17:27:42;98329.58;;;7.20;72.46
68145;BME280;55400;51.824;-0.196;2024-03-02T17:31:42;98329.58;;;7.11;72.46
68145;BME280;55400;51.824;-0.196;2024-03-02T17:35:42;98342.08;;;7.06;73.81
68145;BME280;55400;51.824;-0.196;2024-03-02T17:39:42;98342.08;;;6.98;73.81
68145;BME280;55400;51.824;-0.196;2024-03-02T17:43:42;98352.89;;;6.87;73.83
68145;BME280;55400;51.824;-0.196;2024-03-02T17:47:42;98352.89;;;6.79;73.83
68145;BME280;55400;51.824;-0.196;2024-03-02T17:51:42;98359.05;;;6.73;74.53
68145;BME280;55400;51.824;-0.196;2024-03-02T17:55:43;98371.25;;;6.66;74.77
68145;BME280;55400;51.824;-0.196;2024-03-02T17:59:42;98377.75;;;6.64;75.17
68145;BME280;55400;51.824;-0.196;2024-03-02T18:03:42;98377.26;;;6.62;75.01
68145;BME280;55400;51.824;-0.196;2024-03-02T18:07:43;98373.67;;;6.63;75.07
68145;BME280;55400;51.824;-0.196;2024-03-02T18:11:42;98378.67;;;6.60;75.52
68145;BME280;55400;51.824;-0.196;2024-03-02T18:15:42;98388.58;;;6.59;74.66
68145;BME280;55400;51.824;-0.196;2024-03-02T18:19:42;98393.26999999999;;;6.55;75.84
68145;BME280;55400;51.824;-0.196;2024-03-02T18:23:42;98413.01;;;6.50;76.14
68145;BME280;55400;51.824;-0.196;2024-03-02T18:27:42;98416.03;;;6.44;75.11
68145;BME280;55400;51.824;-0.196;2024-03-02T18:31:42;98416.03;;;6.34;75.11
68145;BME280;55400;51.824;-0.196;2024-03-02T18:35:42;98417.56;;;6.29;74.81
68145;BME280;55400;51.824;-0.196;2024-03-02T18:39:42;98424.59;;;6.24;75.74
68145;BME280;55400;51.824;-0.196;2024-03-02T18:43:42;98429.44;;;6.20;75.74
68145;BME280;55400;51.824;-0.196;2024-03-02T18:47:43;98428.38;;;6.18;76.06
68145;BME280;55400;51.824;-0.196;2024-03-02T18:51:42;98428.38;;;6.09;75.55
68145;BME280;55400;51.824;-0.196;2024-03-02T18:55:42;98435.58;;;6.08;75.64
68145;BME280;55400;51.824;-0.196;2024-03-02T18:59:42;98445.88;;;6.09;76.66
68145;BME280;55400;51.824;-0.196;2024-03-02T19:03:42;98445.88;;;6.06;76.66
68145;BME280;55400;51.824;-0.196;2024-03-02T19:07:42;98449.1;;;6.04;76.50
68145;BME280;55400;51.824;-0.196;2024-03-02T19:11:42;98466.39;;;5.99;76.51
68145;BME280;55400;51.824;-0.196;2024-03-02T19:19:42;98468.07;;;6.01;76.97
68145;BME280;55400;51.824;-0.196;2024-03-02T19:27:42;98475.95;;;6.04;76.94
68145;BME280;55400;51.824;-0.196;2024-03-02T19:31:42;98475.27;;;6.06;76.69
68145;BME280;55400;51.824;-0.196;2024-03-02T19:39:42;98484.89;;;6.07;77.34
68145;BME280;55400;51.824;-0.196;2024-03-02T19:43:42;98484.89;;;6.04;77.27
68145;BME280;55400;51.824;-0.196;2024-03-02T19:47:42;98491.44;;;5.95;76.82
68145;BME280;55400;51.824;-0.196;2024-03-02T19:51:42;98491.42;;;5.88;76.22
68145;BME280;55400;51.824;-0.196;2024-03-02T19:55:42;98491.2;;;5.85;76.55
68145;BME280;55400;51.824;-0.196;2024-03-02T19:59:42;98491.2;;;5.82;76.55
68145;BME280;55400;51.824;-0.196;2024-03-02T20:03:42;98506.72;;;5.76;76.99
68145;BME280;55400;51.824;-0.196;2024-03-02T20:07:42;98512.15999999999;;;5.70;76.93
68145;BME280;55400;51.824;-0.196;2024-03-02T20:11:42;98511.3;;;5.68;76.99
68145;BME280;55400;51.824;-0.196;2024-03-02T20:15:42;98520.86;;;5.65;77.14
68145;BME280;55400;51.824;-0.196;2024-03-02T20:19:42;98519.83;;;5.62;77.15
68145;BME280;55400;51.824;-0.196;2024-03-02T20:23:42;98519.26;;;5.56;76.51
68145;BME280;55400;51.824;-0.196;2024-03-02T20:27:42;98526.83;;;5.53;76.81
68145;BME280;55400;51.824;-0.196;2024-03-02T20:35:42;98526.11;;;5.47;76.87
68145;BME280;55400;51.824;-0.196;2024-03-02T20:39:42;98514.79000000001;;;5.42;76.71
68145;BME280;55400;51.824;-0.196;2024-03-02T20:43:43;98519.54;;;5.40;77.02
68145;BME280;55400;51.824;-0.196;2024-03-02T20:47:42;98529.54999999999;;;5.31;76.82
68145;BME280;55400;51.824;-0.196;2024-03-02T20:51:42;98529.54999999999;;;5.27;76.82
68145;BME280;55400;51.824;-0.196;2024-03-02T20:55:42;98533.01;;;5.28;77.76
68145;BME280;55400;51.824;-0.196;2024-03-02T20:59:42;98536.19;;;5.26;77.29
68145;BME280;55400;51.824;-0.196;2024-03-02T21:07:42;98541.24;;;5.22;77.22
68145;BME280;55400;51.824;-0.196;2024-03-02T21:11:42;98530.83;;;5.15;76.83
68145;BME280;55400;51.824;-0.196;2024-03-02T21:15:42;98532.14;;;5.13;76.89
68145;BME280;55400;51.824;-0.196;2024-03-02T21:19:42;98543.98;;;5.10;77.76
68145;BME280;55400;51.824;-0.196;2024-03-02T21:23:42;98551.01;;;5.01;76.91
68145;BME280;55400;51.824;-0.196;2024-03-02T21:27:42;98551.03;;;4.94;76.02
68145;BME280;55400;51.824;-0.196;2024-03-02T21:31:42;98559.93;;;4.88;76.88
68145;BME280;55400;51.824;-0.196;2024-03-02T21:35:42;98559.93;;;4.82;76.46
68145;BME280;55400;51.824;-0.196;2024-03-02T21:39:42;98563.25;;;4.74;76.99
68145;BME280;55400;51.824;-0.196;2024-03-02T21:43:42;98566.04;;;4.70;77.25
68145;BME280;55400;51.824;-0.196;2024-03-02T21:47:42;98570.95000000001;;;4.67;76.89
68145;BME280;55400;51.824;-0.196;2024-03-02T21:51:42;98573.81;;;4.68;76.81
68145;BME280;55400;51.824;-0.196;2024-03-02T21:55:43;98572.25;;;4.72;77.83
68145;BME280;55400;51.824;-0.196;2024-03-02T21:59:42;98579.02;;;4.70;77.54
68145;BME280;55400;51.824;-0.196;2024-03-02T22:03:43;98579.02;;;4.68;76.65
68145;BME280;55400;51.824;-0.196;2024-03-02T22:07:42;98582.28;;;4.63;76.86
68145;BME280;55400;51.824;-0.196;2024-03-02T22:11:42;98582.28;;;4.56;76.86
68145;BME280;55400;51.824;-0.196;2024-03-02T22:16:51;98589.23;;;4.51;76.70
68145;BME280;55400;51.824;-0.196;2024-03-02T22:19:42;98589.23;;;4.47;76.70
68145;BME280;55400;51.824;-0.196;2024-03-02T22:27:43;98600.26000000001;;;4.45;77.40
68145;BME280;55400;51.824;-0.196;2024-03-02T22:31:42;98602.95;;;4.47;77.19
68145;BME280;55400;51.824;-0.196;2024-03-02T22:39:44;98619.98;;;4.45;77.79
68145;BME280;55400;51.824;-0.196;2024-03-02T22:43:42;98617.52;;;4.41;77.79